»·PEaware :: N2MZ KBUR-KLAS

N2MZ :: KBUR-KLAS

FLIGHT INFORMATION

Flight Status: Arrived
Operator: Privately registered:
United States
More flights under this callsign
Pilot: Mike Z. (25595)
Aircraft: CESSNA 172 SKYHAWK
(C172)
More flights by this aircraft type
Origin: KBUR Bob Hope-Burbank
United States
Destination: KLAS McCarran Intl
United States
More flights between these airports :: More routes between these airports
Route: +VNY3 DAG CRESO4
File this flight plan on PilotEdge
Remarks: I-5 Rating
Altitude:
(Current/Filed)
9,000ft
Speed:
(Current/Filed)
120kts
Departed: 18-Sep-19 05:49 PM
Arrived: 18-Sep-19 07:41 PM
Distance/Time
Traveled:
193nm/1:52
Distance/Time
To Go:
Arrived

Flight Plot

Page will automatically refresh every two minutes.

Flight plan parsing failed; only flown route is shown


Map Options




Map Legend


Flown Route
Filed Route
Departure Airport
Arrival Airport
Navaid (VOR, NDB)
Fix

Horizontal Profiles

Position Reports

Time Latitude Longitude Heading Altitude Ground
Speed
18-Sep-19 17:29 34.200215 -118.358845 257 720ft 0kts
18-Sep-19 17:31 34.200215 -118.358845 257 720ft 0kts
18-Sep-19 17:31 34.200215 -118.358845 257 720ft 0kts
18-Sep-19 17:32 34.200215 -118.358845 257 720ft 0kts
18-Sep-19 17:33 34.200215 -118.358845 257 720ft 0kts
18-Sep-19 17:34 34.200215 -118.358845 257 720ft 0kts
18-Sep-19 17:35 34.200215 -118.358845 257 720ft 0kts
18-Sep-19 17:36 34.200008 -118.359069 175 720ft 3kts
18-Sep-19 17:37 34.199858 -118.359033 159 720ft 0kts
18-Sep-19 17:38 34.199635 -118.358617 118 719ft 0kts
18-Sep-19 17:39 34.199566 -118.358439 110 718ft 7kts
18-Sep-19 17:40 34.203248 -118.359087 345 730ft 10kts
18-Sep-19 17:41 34.206787 -118.360068 346 742ft 22kts
18-Sep-19 17:42 34.211788 -118.361412 160 760ft 0kts
18-Sep-19 17:43 34.211788 -118.361412 160 760ft 0kts
18-Sep-19 17:44 34.211788 -118.361412 160 760ft 0kts
18-Sep-19 17:45 34.211788 -118.361412 160 760ft 0kts
18-Sep-19 17:46 34.211810 -118.361332 57 760ft 1kts
18-Sep-19 17:47 34.210493 -118.359975 167 754ft 33kts
18-Sep-19 17:48 34.192169 -118.355799 196 1249ft 69kts
18-Sep-19 17:49 34.180066 -118.370354 223 1857ft 69kts
18-Sep-19 17:50 34.166504 -118.387517 223 2502ft 67kts
18-Sep-19 17:51 34.153322 -118.403971 223 3074ft 69kts
18-Sep-19 17:52 34.149772 -118.424076 329 3643ft 82kts
18-Sep-19 17:53 34.171921 -118.427385 345 4088ft 91kts
18-Sep-19 17:54 34.198063 -118.431603 349 4553ft 99kts
18-Sep-19 17:55 34.224413 -118.435327 349 5124ft 89kts
18-Sep-19 17:56 34.248559 -118.438516 349 5579ft 89kts
18-Sep-19 17:57 34.274335 -118.442398 347 5971ft 95kts
18-Sep-19 17:58 34.300522 -118.447580 347 6410ft 92kts
18-Sep-19 17:59 34.324312 -118.453142 348 6843ft 85kts
18-Sep-19 18:00 34.348343 -118.456182 351 7175ft 90kts
18-Sep-19 18:01 34.372403 -118.458120 356 7638ft 81kts
18-Sep-19 18:02 34.388541 -118.439613 41 8038ft 81kts
18-Sep-19 18:03 34.404382 -118.417127 52 8236ft 99kts
18-Sep-19 18:04 34.425093 -118.387347 52 8248ft 127kts
18-Sep-19 18:05 34.447821 -118.354070 52 8498ft 120kts
18-Sep-19 18:06 34.466448 -118.323680 54 8922ft 107kts
18-Sep-19 18:07 34.484308 -118.295614 50 9250ft 104kts
18-Sep-19 18:08 34.502419 -118.267831 52 9545ft 104kts
18-Sep-19 18:09 34.520011 -118.240014 49 9838ft 102kts
18-Sep-19 18:10 34.537249 -118.211899 52 10009ft 111kts
18-Sep-19 18:11 34.557273 -118.179616 49 10005ft 126kts
18-Sep-19 18:12 34.579829 -118.145474 48 10004ft 131kts
18-Sep-19 18:13 34.601337 -118.109178 52 10003ft 130kts
18-Sep-19 18:14 34.623011 -118.074334 48 10003ft 127kts
18-Sep-19 18:15 34.630624 -118.033319 86 10000ft 127kts
18-Sep-19 18:16 34.634111 -117.990486 86 9995ft 127kts
18-Sep-19 18:17 34.637425 -117.947586 86 9990ft 127kts
18-Sep-19 18:18 34.640687 -117.904520 86 9985ft 128kts
18-Sep-19 18:19 34.644310 -117.861394 84 9979ft 128kts
18-Sep-19 18:20 34.648252 -117.818209 84 9971ft 128kts
18-Sep-19 18:21 34.654648 -117.775431 81 9977ft 128kts
18-Sep-19 18:22 34.666578 -117.734829 59 9983ft 127kts
18-Sep-19 18:23 34.684153 -117.697322 59 9987ft 127kts
18-Sep-19 18:24 34.691452 -117.655855 65 9996ft 127kts
18-Sep-19 18:25 34.705948 -117.616629 64 10004ft 127kts
18-Sep-19 18:26 34.715421 -117.575648 79 10009ft 126kts
18-Sep-19 18:27 34.724066 -117.534058 74 10008ft 127kts
18-Sep-19 18:28 34.734089 -117.492931 73 10006ft 127kts
18-Sep-19 18:29 34.744466 -117.451689 72 10006ft 127kts
18-Sep-19 18:30 34.754909 -117.410423 72 10006ft 127kts
18-Sep-19 18:31 34.765331 -117.369245 72 10009ft 127kts
18-Sep-19 18:32 34.775341 -117.329668 73 10004ft 129kts
18-Sep-19 18:33 34.786063 -117.287208 73 9996ft 132kts
18-Sep-19 18:34 34.796875 -117.244310 73 9985ft 133kts
18-Sep-19 18:35 34.807758 -117.201048 73 9973ft 133kts
18-Sep-19 18:36 34.818606 -117.157858 73 9957ft 134kts
18-Sep-19 18:37 34.829446 -117.114592 73 9938ft 130kts
18-Sep-19 18:38 34.839539 -117.074249 72 9928ft 119kts
18-Sep-19 18:39 34.848482 -117.038501 72 10021ft 109kts
18-Sep-19 18:40 34.857899 -117.000845 72 10014ft 121kts
18-Sep-19 18:41 34.867922 -116.960591 72 10008ft 126kts
18-Sep-19 18:42 34.878162 -116.919389 72 10005ft 127kts
18-Sep-19 18:43 34.888445 -116.877980 72 10004ft 126kts
18-Sep-19 18:44 34.898495 -116.837465 72 10004ft 124kts
18-Sep-19 18:45 34.908432 -116.797353 72 10005ft 123kts
18-Sep-19 18:46 34.918586 -116.756316 73 10006ft 129kts
18-Sep-19 18:47 34.929161 -116.713451 73 10006ft 133kts
18-Sep-19 18:48 34.940570 -116.670217 71 10006ft 135kts
18-Sep-19 18:49 34.951930 -116.626313 73 10006ft 136kts
18-Sep-19 18:50 34.963327 -116.582091 72 10007ft 137kts
18-Sep-19 18:51 34.979317 -116.539699 64 10009ft 138kts
18-Sep-19 18:52 34.995860 -116.497204 63 10011ft 139kts
18-Sep-19 18:53 35.013280 -116.454658 63 10013ft 141kts
18-Sep-19 18:54 35.030898 -116.411458 64 10016ft 142kts
18-Sep-19 18:55 35.048982 -116.368223 63 10018ft 143kts
18-Sep-19 18:56 35.066484 -116.326293 65 10014ft 143kts
18-Sep-19 18:57 35.084380 -116.282982 65 10014ft 142kts
18-Sep-19 18:58 35.101228 -116.242431 64 10012ft 136kts
18-Sep-19 18:59 35.118197 -116.202937 64 10010ft 132kts
18-Sep-19 19:00 35.134777 -116.163052 65 10011ft 131kts
18-Sep-19 19:01 35.151437 -116.123067 67 10002ft 132kts
18-Sep-19 19:02 35.168191 -116.082751 67 10002ft 133kts
18-Sep-19 19:03 35.185074 -116.042101 67 10007ft 136kts
18-Sep-19 19:04 35.202404 -116.000345 67 10007ft 138kts
18-Sep-19 19:05 35.219809 -115.958379 67 10007ft 139kts
18-Sep-19 19:06 35.237342 -115.916055 67 10007ft 139kts
18-Sep-19 19:07 35.256190 -115.874627 62 10009ft 140kts
18-Sep-19 19:08 35.276193 -115.833692 62 10011ft 139kts
18-Sep-19 19:09 35.296109 -115.792938 62 10013ft 139kts
18-Sep-19 19:10 35.316350 -115.752282 52 10014ft 140kts
18-Sep-19 19:11 35.344510 -115.720183 39 10016ft 140kts
18-Sep-19 19:12 35.377422 -115.694984 34 10017ft 140kts
18-Sep-19 19:13 35.407313 -115.664190 43 10018ft 140kts
18-Sep-19 19:14 35.431886 -115.627123 51 10019ft 140kts
18-Sep-19 19:15 35.458586 -115.591937 48 10018ft 140kts
18-Sep-19 19:16 35.485070 -115.556693 48 10019ft 140kts
18-Sep-19 19:17 35.511271 -115.521566 41 10020ft 139kts
18-Sep-19 19:18 35.539913 -115.489139 45 10019ft 140kts
18-Sep-19 19:19 35.567160 -115.454907 46 10020ft 140kts
18-Sep-19 19:20 35.593608 -115.419903 49 10020ft 140kts
18-Sep-19 19:22 35.619689 -115.384197 49 10020ft 140kts
18-Sep-19 19:23 35.645290 -115.349020 50 10020ft 140kts
18-Sep-19 19:24 35.669445 -115.315146 50 10017ft 139kts
18-Sep-19 19:25 35.695297 -115.279621 50 10017ft 139kts
18-Sep-19 19:26 35.721074 -115.244096 50 10018ft 139kts
18-Sep-19 19:27 35.748735 -115.205801 49 9579ft 162kts
18-Sep-19 19:28 35.780817 -115.169746 16 8900ft 154kts
18-Sep-19 19:29 35.821203 -115.153326 15 8202ft 151kts
18-Sep-19 19:30 35.861077 -115.137454 15 7511ft 150kts
18-Sep-19 19:31 35.900306 -115.122063 15 7037ft 136kts
18-Sep-19 19:32 35.935796 -115.108084 15 7045ft 135kts
18-Sep-19 19:33 35.972067 -115.093936 15 7043ft 136kts
18-Sep-19 19:34 36.008514 -115.079826 15 7041ft 136kts
18-Sep-19 19:35 36.040768 -115.084667 324 7235ft 127kts
18-Sep-19 19:36 36.068691 -115.115532 310 5581ft 149kts
18-Sep-19 19:37 36.104079 -115.118823 16 4362ft 127kts
18-Sep-19 19:38 36.130715 -115.122217 299 3710ft 74kts
18-Sep-19 19:39 36.124657 -115.141804 211 3059ft 71kts
18-Sep-19 19:40 36.107070 -115.152253 205 2352ft 68kts
18-Sep-19 19:41 36.092968 -115.160301 202 2108ft 30kts
18-Sep-19 19:42 36.089450 -115.163646 295 2130ft 0kts
18-Sep-19 19:42 36.089509 -115.163800 294 2130ft 6kts
18-Sep-19 19:44 36.086092 -115.166633 206 2147ft 21kts
18-Sep-19 19:45 36.081732 -115.169848 336 2165ft 17kts
18-Sep-19 19:45 36.086790 -115.166938 31 2146ft 0kts
18-Sep-19 19:46 36.086790 -115.166937 31 2146ft 0kts

Navigation Log

Ident Type
Flight plan parsing failed, navigation log unavailable